createdAt,value
2022-10-20T00:02:19.143Z,6.50
2022-10-20T00:06:36.015Z,6.50
2022-10-20T00:10:57.982Z,6.50
2022-10-20T00:15:15.325Z,6.50
2022-10-20T00:19:29.194Z,6.40
2022-10-20T00:23:43.224Z,6.40
2022-10-20T00:27:58.440Z,6.30
2022-10-20T00:32:12.116Z,6.40
2022-10-20T00:36:26.135Z,6.30
2022-10-20T00:40:41.110Z,6.20
2022-10-20T00:44:59.617Z,6.30
2022-10-20T00:49:19.217Z,6.30
2022-10-20T00:53:33.201Z,6.20
2022-10-20T00:57:51.008Z,6.20
2022-10-20T01:02:07.894Z,6.20
2022-10-20T01:06:26.496Z,6.20
2022-10-20T01:10:48.381Z,6.20
2022-10-20T01:15:08.771Z,6.20
2022-10-20T01:19:58.381Z,6.20
2022-10-20T01:24:50.924Z,6.20
2022-10-20T01:29:12.639Z,6.20
2022-10-20T01:33:37.297Z,6.20
2022-10-20T01:37:55.561Z,6.10
2022-10-20T01:42:14.502Z,6.10
2022-10-20T01:46:30.091Z,6.10
2022-10-20T01:50:44.594Z,6.10
2022-10-20T01:54:58.324Z,6.10
2022-10-20T01:59:34.370Z,6.10
2022-10-20T02:03:55.253Z,6.00
2022-10-20T02:08:14.342Z,6.00
2022-10-20T02:12:30.568Z,6.00
2022-10-20T02:16:49.315Z,6.00
2022-10-20T02:21:07.224Z,6.00
2022-10-20T02:25:22.673Z,6.10
2022-10-20T02:29:43.587Z,6.10
2022-10-20T02:33:58.748Z,6.10
2022-10-20T02:38:14.045Z,6.00
2022-10-20T02:42:27.794Z,6.00
2022-10-20T02:46:41.485Z,6.00
2022-10-20T02:50:55.124Z,6.00
2022-10-20T02:55:10.692Z,6.00
2022-10-20T02:59:24.347Z,5.90
2022-10-20T03:03:38.051Z,5.90
2022-10-20T03:07:51.766Z,5.90
2022-10-20T03:12:07.313Z,5.80
2022-10-20T03:16:21.347Z,5.80
2022-10-20T03:20:35.555Z,5.80
2022-10-20T03:24:49.298Z,5.70
2022-10-20T03:29:04.441Z,5.70
2022-10-20T03:33:18.090Z,5.70
2022-10-20T03:37:31.803Z,5.70
2022-10-20T03:41:45.441Z,5.70
2022-10-20T03:46:08.295Z,5.60
2022-10-20T03:50:22.021Z,5.60
2022-10-20T03:54:36.447Z,5.60
2022-10-20T03:58:50.271Z,5.60
2022-10-20T04:03:05.512Z,5.60
2022-10-20T04:07:19.233Z,5.60
2022-10-20T04:11:33.305Z,5.60
2022-10-20T04:15:46.904Z,5.60
2022-10-20T04:20:02.103Z,5.60
2022-10-20T04:24:15.991Z,5.60
2022-10-20T04:28:30.799Z,5.60
2022-10-20T04:32:44.448Z,5.50
2022-10-20T04:37:00.051Z,5.50
2022-10-20T04:41:13.757Z,5.50
2022-10-20T04:45:27.479Z,5.50
2022-10-20T04:49:42.228Z,5.40
2022-10-20T04:53:57.348Z,5.40
2022-10-20T04:58:11.192Z,5.30
2022-10-20T05:02:25.177Z,5.30
2022-10-20T05:06:39.376Z,5.30
2022-10-20T05:10:54.410Z,5.30
2022-10-20T05:15:09.165Z,5.20
2022-10-20T05:19:23.022Z,5.10
2022-10-20T05:23:36.954Z,5.00
2022-10-20T05:27:51.933Z,4.90
2022-10-20T05:32:05.874Z,4.90
2022-10-20T05:36:21.842Z,4.90
2022-10-20T05:40:35.523Z,4.80
2022-10-20T05:44:50.995Z,4.70
2022-10-20T05:49:05.153Z,4.70
2022-10-20T05:53:19.769Z,4.70
2022-10-20T05:57:33.569Z,4.70
2022-10-20T06:01:49.111Z,4.80
2022-10-20T06:06:03.620Z,4.80
2022-10-20T06:10:17.470Z,4.90
2022-10-20T06:14:31.352Z,5.00
2022-10-20T06:18:46.407Z,5.10
2022-10-20T06:23:00.086Z,5.20
2022-10-20T06:27:13.855Z,5.40
2022-10-20T06:31:29.214Z,5.40
2022-10-20T06:35:44.601Z,5.50
2022-10-20T06:39:58.463Z,5.50
2022-10-20T06:44:12.836Z,5.60
2022-10-20T06:48:27.383Z,5.70
2022-10-20T06:52:42.463Z,5.80
2022-10-20T06:56:56.188Z,5.90
2022-10-20T07:01:14.649Z,6.10
2022-10-20T07:05:28.430Z,6.30
2022-10-20T07:09:43.488Z,6.50
2022-10-20T07:13:58.744Z,7.20
2022-10-20T07:18:12.377Z,8.40
2022-10-20T07:22:26.006Z,9.60
2022-10-20T07:26:41.961Z,10.50
2022-10-20T07:30:55.717Z,11.00
2022-10-20T07:35:09.707Z,11.20
2022-10-20T07:39:23.654Z,11.60
2022-10-20T07:43:39.145Z,11.80
2022-10-20T07:47:52.864Z,12.20
2022-10-20T07:52:07.158Z,12.50
2022-10-20T07:56:21.261Z,12.50
2022-10-20T08:00:36.344Z,12.50
2022-10-20T08:04:50.280Z,12.60
2022-10-20T08:09:05.069Z,12.80
2022-10-20T08:13:18.791Z,13.00
2022-10-20T08:17:34.966Z,13.10
2022-10-20T08:21:48.984Z,13.20
2022-10-20T08:26:02.800Z,13.30
2022-10-20T08:30:23.812Z,13.20
2022-10-20T08:34:39.756Z,13.30
2022-10-20T08:38:54.548Z,13.10
2022-10-20T08:43:11.760Z,13.10
2022-10-20T08:47:30.665Z,13.20
2022-10-20T08:51:47.679Z,13.50
2022-10-20T08:56:01.385Z,13.80
2022-10-20T09:00:17.336Z,14.50
2022-10-20T09:04:37.800Z,15.20
2022-10-20T09:08:53.572Z,16.00
2022-10-20T09:13:14.496Z,16.70
2022-10-20T09:17:28.216Z,17.00
2022-10-20T09:21:43.070Z,16.90
2022-10-20T09:25:58.163Z,16.90
2022-10-20T09:30:18.544Z,16.70
2022-10-20T09:34:34.707Z,17.10
2022-10-20T09:38:50.534Z,17.40
2022-10-20T09:43:12.398Z,17.50
2022-10-20T09:47:28.539Z,17.70
2022-10-20T09:51:49.135Z,18.00
2022-10-20T09:56:03.475Z,18.20
2022-10-20T10:00:36.774Z,18.40
2022-10-20T10:04:53.049Z,18.50
2022-10-20T10:09:28.027Z,18.60
2022-10-20T10:13:44.655Z,18.90
2022-10-20T10:18:01.425Z,18.80
2022-10-20T10:22:15.667Z,18.70
2022-10-20T10:26:46.988Z,18.60
2022-10-20T10:31:24.129Z,18.60
2022-10-20T10:35:42.143Z,18.60
2022-10-20T10:39:56.442Z,18.70
2022-10-20T10:44:18.957Z,18.70
2022-10-20T10:48:55.497Z,18.30
2022-10-20T10:53:28.005Z,17.90
2022-10-20T10:57:52.959Z,17.90
2022-10-20T11:02:33.831Z,18.20
2022-10-20T11:06:57.071Z,18.30
2022-10-20T11:11:26.317Z,18.40
2022-10-20T11:16:00.335Z,18.60
2022-10-20T11:20:25.627Z,18.70
2022-10-20T11:24:50.932Z,18.70
2022-10-20T11:29:11.394Z,18.70
2022-10-20T11:33:28.258Z,18.50
2022-10-20T11:37:49.469Z,18.10
2022-10-20T11:42:16.557Z,17.70
2022-10-20T11:46:38.188Z,17.50
2022-10-20T11:51:16.697Z,17.40
2022-10-20T11:55:45.365Z,17.50
2022-10-20T12:00:15.062Z,17.50
2022-10-20T12:04:41.417Z,17.60
2022-10-20T12:09:40.212Z,17.40
2022-10-20T12:14:02.159Z,17.10
2022-10-20T12:18:26.092Z,16.80
2022-10-20T12:22:43.478Z,16.50
2022-10-20T12:27:20.965Z,16.20
2022-10-20T12:32:24.181Z,16.10
2022-10-20T12:36:39.225Z,15.90
2022-10-20T12:41:00.057Z,15.90
2022-10-20T12:45:30.840Z,15.90
2022-10-20T12:49:54.588Z,15.80
2022-10-20T12:54:20.039Z,15.80
2022-10-20T12:58:36.581Z,15.80
2022-10-20T13:02:53.587Z,15.80
2022-10-20T13:07:10.578Z,15.90
2022-10-20T13:11:41.967Z,15.80
2022-10-20T13:15:57.998Z,15.90
2022-10-20T13:20:24.176Z,15.90
2022-10-20T13:24:42.697Z,15.90
2022-10-20T13:29:02.110Z,15.90
2022-10-20T13:33:34.438Z,16.00
2022-10-20T13:38:00.616Z,16.10
2022-10-20T13:42:27.553Z,16.10
2022-10-20T13:46:50.340Z,16.10
2022-10-20T13:51:10.697Z,16.20
2022-10-20T13:55:27.280Z,16.20
2022-10-20T13:59:56.479Z,16.30
2022-10-20T14:04:25.490Z,16.30
2022-10-20T14:08:45.557Z,16.40
2022-10-20T14:12:59.434Z,16.30
2022-10-20T14:17:20.744Z,16.30
2022-10-20T14:21:41.673Z,16.40
2022-10-20T14:25:58.001Z,16.40
2022-10-20T14:30:17.110Z,16.40
2022-10-20T14:34:34.378Z,16.40
2022-10-20T14:38:53.282Z,16.30
2022-10-20T14:43:14.999Z,16.30
2022-10-20T14:47:33.928Z,16.30
2022-10-20T14:51:56.197Z,16.20
2022-10-20T14:56:25.590Z,16.10
2022-10-20T15:00:41.096Z,16.10
2022-10-20T15:04:54.910Z,16.10
2022-10-20T15:09:19.176Z,16.00
2022-10-20T15:13:34.510Z,15.70
2022-10-20T15:17:51.332Z,15.40
2022-10-20T15:26:28.907Z,14.90
2022-10-20T15:30:42.773Z,14.70
2022-10-20T15:34:57.808Z,14.50
2022-10-20T15:39:12.224Z,14.40
2022-10-20T15:43:26.764Z,14.20
2022-10-20T15:47:41.074Z,14.10
2022-10-20T15:51:56.332Z,13.90
2022-10-20T15:56:10.173Z,13.80
2022-10-20T16:00:26.762Z,13.60
2022-10-20T16:04:40.530Z,13.50
2022-10-20T16:08:55.934Z,13.40
2022-10-20T16:13:10.756Z,13.30
2022-10-20T16:17:24.461Z,13.20
2022-10-20T16:21:38.171Z,13.10
2022-10-20T16:25:53.461Z,12.90
2022-10-20T16:30:08.725Z,12.80
2022-10-20T16:34:22.495Z,12.70
2022-10-20T16:38:39.923Z,12.60
2022-10-20T16:42:55.612Z,12.50
2022-10-20T16:47:35.974Z,12.40
2022-10-20T16:51:49.862Z,12.40
2022-10-20T16:56:15.209Z,12.20
2022-10-20T17:00:38.592Z,12.10
2022-10-20T17:04:52.961Z,12.10
2022-10-20T17:09:06.798Z,12.00
2022-10-20T17:13:20.558Z,11.90
2022-10-20T17:17:36.076Z,11.80
2022-10-20T17:21:52.466Z,11.80
2022-10-20T17:26:11.058Z,11.80
2022-10-20T17:30:24.951Z,11.70
2022-10-20T17:34:40.099Z,11.60
2022-10-20T17:38:56.537Z,11.50
2022-10-20T17:54:44.922Z,11.40
2022-10-20T17:59:00.335Z,11.30
2022-10-20T18:03:14.626Z,11.30
2022-10-20T18:07:28.611Z,11.30
2022-10-20T18:11:45.657Z,11.30
2022-10-20T18:15:59.376Z,11.30
2022-10-20T18:20:13.747Z,11.30
2022-10-20T18:24:30.660Z,11.30
2022-10-20T18:28:50.588Z,11.20
2022-10-20T18:33:05.708Z,11.20
2022-10-20T18:37:19.869Z,11.20
2022-10-20T18:41:38.138Z,11.20
2022-10-20T18:45:54.391Z,11.10
2022-10-20T18:50:09.767Z,11.10
2022-10-20T18:54:24.318Z,11.10
2022-10-20T18:58:43.021Z,11.10
2022-10-20T19:03:07.891Z,11.00
2022-10-20T19:07:22.134Z,11.00
2022-10-20T19:11:40.620Z,11.00
2022-10-20T19:15:56.558Z,11.00
2022-10-20T19:20:16.225Z,11.00
2022-10-20T19:24:30.410Z,11.10
2022-10-20T19:28:59.002Z,11.00
2022-10-20T19:33:12.978Z,11.00
2022-10-20T19:37:28.656Z,11.00
2022-10-20T19:41:42.542Z,11.10
2022-10-20T19:45:56.673Z,11.10
2022-10-20T19:50:10.646Z,11.00
2022-10-20T19:54:26.077Z,10.90
2022-10-20T19:58:44.136Z,10.60
2022-10-20T20:03:02.784Z,10.40
2022-10-20T20:11:34.752Z,10.10
2022-10-20T20:15:48.808Z,10.20
2022-10-20T20:20:03.070Z,10.20
2022-10-20T20:24:17.095Z,10.20
2022-10-20T20:28:32.710Z,10.20
2022-10-20T20:32:47.805Z,10.20
2022-10-20T20:37:04.548Z,10.20
2022-10-20T20:41:20.828Z,10.30
2022-10-20T20:45:38.114Z,10.30
2022-10-20T20:49:56.547Z,10.50
2022-10-20T20:54:11.479Z,10.50
2022-10-20T20:58:26.435Z,10.60
2022-10-20T21:02:45.084Z,10.60
2022-10-20T21:07:02.965Z,10.70
2022-10-20T21:11:18.900Z,10.80
2022-10-20T21:15:32.922Z,10.90
2022-10-20T21:19:48.007Z,11.00
2022-10-20T21:24:03.103Z,11.10
2022-10-20T21:28:16.817Z,11.10
2022-10-20T21:32:30.500Z,11.20
2022-10-20T21:36:45.680Z,11.30
2022-10-20T21:41:03.755Z,11.40
2022-10-20T21:45:19.150Z,11.50
2022-10-20T21:49:33.832Z,11.50
2022-10-20T21:53:49.256Z,11.60
2022-10-20T21:58:02.907Z,11.60
2022-10-20T22:02:16.546Z,11.60
2022-10-20T22:06:30.239Z,11.70
2022-10-20T22:10:45.288Z,11.80
2022-10-20T22:14:59.016Z,11.80
2022-10-20T22:19:14.625Z,11.90
2022-10-20T22:23:28.493Z,11.90
2022-10-20T22:27:43.571Z,12.00
2022-10-20T22:31:57.259Z,12.00
2022-10-20T22:36:10.961Z,11.90
2022-10-20T22:40:24.624Z,11.90
2022-10-20T22:44:39.694Z,11.90
2022-10-20T22:48:53.455Z,11.90
2022-10-20T22:53:07.233Z,11.90
2022-10-20T22:57:21.001Z,11.90
2022-10-20T23:01:36.354Z,11.90
2022-10-20T23:05:50.061Z,11.90
2022-10-20T23:10:04.525Z,11.90
2022-10-20T23:14:18.884Z,11.90
2022-10-20T23:18:34.611Z,11.80
2022-10-20T23:22:49.210Z,11.90
2022-10-20T23:27:03.060Z,11.90
2022-10-20T23:31:19.004Z,12.00
2022-10-20T23:35:35.799Z,12.00
2022-10-20T23:39:49.619Z,12.00
2022-10-20T23:44:03.536Z,12.10
2022-10-20T23:48:17.495Z,12.20
2022-10-20T23:52:32.592Z,12.30
2022-10-20T23:56:47.101Z,12.40
